createdAt,value
2023-03-22T00:00:35.405Z,76.84
2023-03-22T00:02:39.202Z,76.82
2023-03-22T00:04:43.660Z,77.05
2023-03-22T00:06:48.597Z,77.13
2023-03-22T00:08:53.164Z,77.24
2023-03-22T00:10:56.600Z,77.84
2023-03-22T00:13:00.266Z,78.35
2023-03-22T00:15:03.692Z,78.65
2023-03-22T00:17:07.165Z,78.38
2023-03-22T00:19:10.670Z,77.93
2023-03-22T00:21:15.782Z,78.14
2023-03-22T00:23:21.102Z,78.23
2023-03-22T00:25:25.595Z,77.83
2023-03-22T00:27:29.056Z,78.62
2023-03-22T00:29:32.732Z,78.76
2023-03-22T00:31:36.278Z,78.61
2023-03-22T00:33:39.960Z,78.76
2023-03-22T00:35:49.573Z,78.48
2023-03-22T00:37:52.951Z,78.49
2023-03-22T00:39:57.871Z,78.73
2023-03-22T00:42:01.375Z,78.75
2023-03-22T00:44:04.812Z,78.24
2023-03-22T00:46:08.749Z,78.05
2023-03-22T00:48:13.401Z,77.98
2023-03-22T00:50:17.067Z,77.72
2023-03-22T00:52:21.409Z,77.69
2023-03-22T00:54:24.804Z,77.34
2023-03-22T00:56:30.270Z,77.21
2023-03-22T00:58:41.031Z,77.34
2023-03-22T01:00:45.312Z,77.44
2023-03-22T01:02:48.718Z,77.22
2023-03-22T01:04:57.171Z,77.13
2023-03-22T01:07:01.484Z,77.16
2023-03-22T01:09:05.815Z,76.98
2023-03-22T01:11:10.783Z,76.98
2023-03-22T01:13:17.840Z,77.26
2023-03-22T01:15:23.328Z,77.42
2023-03-22T01:17:28.390Z,77.31
2023-03-22T01:19:32.021Z,77.57
2023-03-22T01:21:35.475Z,77.40
2023-03-22T01:23:39.936Z,77.72
2023-03-22T01:25:43.771Z,77.94
2023-03-22T01:27:47.936Z,77.76
2023-03-22T01:29:53.056Z,78.25
2023-03-22T01:31:56.515Z,78.34
2023-03-22T01:34:00.166Z,78.18
2023-03-22T01:36:04.890Z,78.30
2023-03-22T01:38:10.413Z,78.55
2023-03-22T01:40:20.942Z,78.26
2023-03-22T01:42:25.302Z,78.51
2023-03-22T01:44:31.127Z,78.54
2023-03-22T01:46:37.946Z,78.43
2023-03-22T01:48:46.045Z,78.35
2023-03-22T01:50:59.804Z,78.46
2023-03-22T01:53:05.124Z,78.37
2023-03-22T01:55:14.154Z,78.75
2023-03-22T01:57:22.134Z,78.92
2023-03-22T01:59:26.379Z,78.93
2023-03-22T02:02:00.156Z,79.33
2023-03-22T02:04:09.046Z,79.91
2023-03-22T02:06:13.311Z,79.62
2023-03-22T02:08:17.285Z,79.68
2023-03-22T02:10:33.503Z,80.08
2023-03-22T02:12:50.498Z,80.08
2023-03-22T02:15:24.246Z,80.36
2023-03-22T02:17:59.713Z,80.56
2023-03-22T02:20:38.800Z,81.07
2023-03-22T02:23:27.670Z,81.03
2023-03-22T02:26:06.763Z,81.42
2023-03-22T02:28:28.561Z,81.62
2023-03-22T02:30:56.420Z,81.83
2023-03-22T02:33:41.878Z,81.86
2023-03-22T02:35:58.607Z,82.01
2023-03-22T02:38:36.786Z,81.86
2023-03-22T02:40:50.943Z,82.20
2023-03-22T02:43:00.325Z,82.30
2023-03-22T02:45:10.665Z,82.75
2023-03-22T02:47:22.870Z,82.71
2023-03-22T02:49:34.462Z,82.84
2023-03-22T02:51:43.676Z,82.86
2023-03-22T02:53:53.254Z,82.88
2023-03-22T02:56:01.264Z,83.04
2023-03-22T02:58:11.401Z,83.12
2023-03-22T03:00:18.392Z,83.00
2023-03-22T03:02:23.339Z,83.28
2023-03-22T03:04:31.104Z,83.31
2023-03-22T03:06:39.888Z,83.13
2023-03-22T03:08:46.768Z,83.11
2023-03-22T03:10:52.148Z,83.19
2023-03-22T03:12:57.289Z,83.21
2023-03-22T03:15:00.670Z,82.98
2023-03-22T03:17:18.870Z,83.15
2023-03-22T03:19:32.112Z,83.08
2023-03-22T03:21:45.218Z,83.01
2023-03-22T03:23:57.885Z,83.53
2023-03-22T03:26:07.256Z,83.21
2023-03-22T03:28:22.896Z,83.51
2023-03-22T03:30:34.534Z,83.72
2023-03-22T03:32:43.902Z,83.68
2023-03-22T03:34:52.793Z,83.61
2023-03-22T03:37:01.300Z,83.39
2023-03-22T03:39:09.915Z,83.40
2023-03-22T03:41:17.363Z,83.40
2023-03-22T03:43:23.037Z,83.24
2023-03-22T03:45:27.055Z,83.55
2023-03-22T03:47:32.152Z,83.59
2023-03-22T03:49:36.287Z,83.61
2023-03-22T03:51:50.280Z,83.95
2023-03-22T03:53:53.638Z,84.25
2023-03-22T03:55:58.968Z,84.77
2023-03-22T03:58:09.417Z,85.11
2023-03-22T04:00:15.879Z,85.23
2023-03-22T04:02:45.807Z,84.45
2023-03-22T04:05:07.385Z,84.23
2023-03-22T04:07:10.971Z,84.04
2023-03-22T04:09:16.167Z,83.48
2023-03-22T04:11:23.631Z,83.62
2023-03-22T04:13:30.632Z,83.85
2023-03-22T04:15:38.696Z,83.24
2023-03-22T04:17:49.640Z,83.23
2023-03-22T04:19:56.506Z,83.64
2023-03-22T04:22:00.351Z,83.56
2023-03-22T04:24:04.150Z,83.59
2023-03-22T04:26:12.840Z,83.67
2023-03-22T04:28:28.256Z,83.75
2023-03-22T04:30:36.491Z,83.56
2023-03-22T04:32:56.742Z,83.86
2023-03-22T04:35:10.871Z,84.01
2023-03-22T04:37:14.533Z,83.98
2023-03-22T04:39:45.373Z,84.39
2023-03-22T04:42:06.185Z,84.21
2023-03-22T04:44:10.825Z,84.06
2023-03-22T04:46:21.860Z,83.90
2023-03-22T04:48:41.479Z,84.46
2023-03-22T04:50:46.927Z,84.70
2023-03-22T04:52:50.932Z,84.73
2023-03-22T04:54:54.389Z,84.71
2023-03-22T04:56:57.838Z,84.88
2023-03-22T04:59:03.618Z,85.02
2023-03-22T05:01:07.850Z,85.21
2023-03-22T05:03:14.503Z,85.32
2023-03-22T05:05:22.036Z,85.46
2023-03-22T05:07:27.351Z,84.79
2023-03-22T05:09:34.407Z,84.64
2023-03-22T05:11:38.651Z,84.66
2023-03-22T05:14:00.912Z,84.74
2023-03-22T05:16:05.685Z,84.38
2023-03-22T05:18:21.657Z,84.39
2023-03-22T05:20:26.748Z,84.33
2023-03-22T05:22:43.156Z,84.88
2023-03-22T05:24:47.723Z,85.11
2023-03-22T05:26:57.081Z,86.18
2023-03-22T05:29:02.646Z,86.47
2023-03-22T05:31:34.467Z,87.02
2023-03-22T05:33:39.245Z,87.12
2023-03-22T05:35:45.865Z,87.11
2023-03-22T05:37:49.306Z,87.30
2023-03-22T05:39:53.235Z,87.44
2023-03-22T05:42:00.681Z,87.63
2023-03-22T05:44:05.015Z,87.17
2023-03-22T05:46:11.425Z,87.18
2023-03-22T05:48:31.896Z,87.24
2023-03-22T05:50:35.798Z,87.50
2023-03-22T05:52:42.765Z,87.28
2023-03-22T05:55:17.561Z,87.34
2023-03-22T05:57:21.764Z,87.51
2023-03-22T05:59:25.595Z,87.68
2023-03-22T06:01:29.044Z,87.50
2023-03-22T06:03:51.906Z,87.76
2023-03-22T06:06:15.876Z,88.29
2023-03-22T06:08:30.249Z,87.96
2023-03-22T06:10:36.171Z,88.05
2023-03-22T06:12:39.839Z,88.26
2023-03-22T06:14:48.627Z,87.98
2023-03-22T06:17:15.079Z,88.46
2023-03-22T06:19:18.572Z,88.79
2023-03-22T06:21:22.428Z,88.19
2023-03-22T06:23:26.042Z,88.27
2023-03-22T06:25:31.900Z,88.62
2023-03-22T06:27:36.231Z,88.26
2023-03-22T06:29:39.906Z,88.22
2023-03-22T06:31:44.213Z,88.30
2023-03-22T06:33:48.076Z,88.32
2023-03-22T06:36:05.803Z,87.52
2023-03-22T06:38:15.756Z,87.62
2023-03-22T06:40:19.916Z,87.75
2023-03-22T06:42:26.058Z,87.60
2023-03-22T06:44:42.263Z,87.20
2023-03-22T06:46:51.123Z,87.13
2023-03-22T06:49:15.377Z,86.77
2023-03-22T06:51:18.928Z,87.47
2023-03-22T06:53:22.749Z,86.85
2023-03-22T06:55:26.335Z,86.63
2023-03-22T06:57:31.505Z,86.54
2023-03-22T06:59:35.058Z,86.21
2023-03-22T07:01:39.107Z,86.26
2023-03-22T07:03:42.611Z,86.07
2023-03-22T07:05:51.702Z,85.95
2023-03-22T07:07:55.580Z,85.83
2023-03-22T07:09:59.193Z,85.55
2023-03-22T07:12:02.686Z,85.56
2023-03-22T07:14:07.912Z,85.14
2023-03-22T07:16:30.401Z,84.89
2023-03-22T07:18:37.046Z,85.02
2023-03-22T07:20:42.534Z,84.74
2023-03-22T07:22:47.026Z,84.57
2023-03-22T07:24:57.600Z,84.09
2023-03-22T07:27:04.623Z,83.89
2023-03-22T07:29:11.581Z,83.64
2023-03-22T07:31:16.394Z,83.22
2023-03-22T07:33:43.987Z,83.07
2023-03-22T07:35:48.074Z,83.10
2023-03-22T07:37:53.151Z,82.32
2023-03-22T07:40:04.130Z,82.16
2023-03-22T07:42:08.103Z,82.18
2023-03-22T07:44:24.987Z,82.24
2023-03-22T07:46:45.574Z,81.56
2023-03-22T07:48:59.735Z,80.68
2023-03-22T07:51:23.101Z,80.85
2023-03-22T07:53:26.921Z,80.47
2023-03-22T07:55:31.025Z,80.18
2023-03-22T07:57:35.038Z,79.41
2023-03-22T07:59:40.311Z,78.94
2023-03-22T08:01:44.923Z,78.55
2023-03-22T08:04:07.047Z,78.69
2023-03-22T08:06:26.785Z,78.32
2023-03-22T08:08:30.407Z,78.25
2023-03-22T08:10:35.820Z,78.16
2023-03-22T08:12:41.571Z,78.10
2023-03-22T08:14:55.177Z,77.64
2023-03-22T08:17:02.181Z,78.17
2023-03-22T08:19:07.481Z,77.85
2023-03-22T08:21:16.849Z,77.72
2023-03-22T08:23:38.515Z,77.17
2023-03-22T08:26:05.317Z,74.40
2023-03-22T08:28:10.329Z,74.36
2023-03-22T08:30:16.559Z,74.89
2023-03-22T08:32:20.816Z,74.45
2023-03-22T08:34:24.287Z,74.85
2023-03-22T08:36:31.240Z,74.19
2023-03-22T08:38:40.104Z,73.03
2023-03-22T08:40:46.745Z,72.29
2023-03-22T08:42:50.516Z,72.71
2023-03-22T08:44:54.313Z,71.82
2023-03-22T08:47:03.134Z,71.46
2023-03-22T08:49:10.341Z,71.31
2023-03-22T08:51:26.371Z,70.75
2023-03-22T08:53:46.711Z,68.00
2023-03-22T08:56:14.986Z,66.15
2023-03-22T08:58:27.254Z,66.25
2023-03-22T09:01:06.391Z,65.41
2023-03-22T09:03:18.586Z,63.59
2023-03-22T09:05:22.125Z,63.10
2023-03-22T09:07:26.076Z,62.54
2023-03-22T09:09:40.865Z,62.30
2023-03-22T09:11:45.695Z,63.07
2023-03-22T09:13:49.408Z,63.18
2023-03-22T09:15:53.846Z,63.72
2023-03-22T09:18:03.198Z,63.18
2023-03-22T09:20:12.713Z,62.28
2023-03-22T09:22:18.285Z,62.91
2023-03-22T09:24:25.179Z,63.10
2023-03-22T09:26:31.373Z,63.57
2023-03-22T09:28:38.197Z,62.69
2023-03-22T09:30:45.486Z,62.65
2023-03-22T09:32:52.079Z,63.15
2023-03-22T09:34:56.638Z,62.83
2023-03-22T09:37:04.777Z,63.21
2023-03-22T09:39:18.483Z,62.68
2023-03-22T09:41:37.179Z,62.41
2023-03-22T09:43:44.675Z,62.88
2023-03-22T09:45:53.111Z,63.19
2023-03-22T09:47:59.248Z,62.83
2023-03-22T09:50:08.112Z,63.33
2023-03-22T09:52:16.164Z,62.58
2023-03-22T09:54:22.022Z,62.51
2023-03-22T09:56:28.640Z,62.44
2023-03-22T09:58:37.056Z,63.34
2023-03-22T10:00:44.949Z,63.39
2023-03-22T10:02:58.467Z,62.40
2023-03-22T10:05:11.585Z,62.08
2023-03-22T10:07:27.273Z,62.43
2023-03-22T10:09:36.312Z,62.29
2023-03-22T10:11:46.201Z,63.01
2023-03-22T10:14:01.333Z,62.62
2023-03-22T10:16:07.820Z,62.46
2023-03-22T10:18:17.086Z,61.66
2023-03-22T10:20:31.609Z,61.50
2023-03-22T10:22:41.607Z,61.05
2023-03-22T10:24:49.940Z,61.10
2023-03-22T10:26:54.562Z,60.70
2023-03-22T10:29:04.012Z,60.31
2023-03-22T10:31:14.168Z,59.55
2023-03-22T10:33:24.708Z,60.09
2023-03-22T10:35:28.246Z,60.48
2023-03-22T10:37:37.630Z,60.59
2023-03-22T10:39:44.831Z,61.21
2023-03-22T10:41:50.068Z,61.63
2023-03-22T10:43:56.200Z,60.61
2023-03-22T10:46:02.400Z,60.24
2023-03-22T10:48:11.492Z,59.60
2023-03-22T10:50:21.248Z,59.82
2023-03-22T10:52:39.598Z,59.35
2023-03-22T10:54:43.193Z,59.20
2023-03-22T10:56:46.867Z,59.61
2023-03-22T10:58:51.545Z,60.79
2023-03-22T11:01:01.000Z,60.26
2023-03-22T11:03:07.120Z,61.22
2023-03-22T11:05:22.969Z,60.98
2023-03-22T11:07:37.181Z,60.41
2023-03-22T11:09:40.787Z,59.98
2023-03-22T11:11:50.870Z,60.01
2023-03-22T11:14:02.642Z,60.17
2023-03-22T11:16:06.865Z,59.77
2023-03-22T11:18:15.809Z,60.39
2023-03-22T11:20:20.915Z,60.52
2023-03-22T11:22:31.477Z,60.17
2023-03-22T11:24:36.852Z,61.14
2023-03-22T11:26:41.628Z,60.79
2023-03-22T11:28:48.988Z,60.79
2023-03-22T11:31:04.120Z,61.03
2023-03-22T11:33:18.540Z,61.07
2023-03-22T11:35:25.609Z,60.82
2023-03-22T11:37:29.423Z,60.17
2023-03-22T11:39:32.847Z,59.79
2023-03-22T11:41:40.338Z,59.97
2023-03-22T11:43:48.846Z,59.96
2023-03-22T11:45:57.574Z,60.06
2023-03-22T11:48:04.209Z,60.57
2023-03-22T11:50:10.740Z,60.17
2023-03-22T11:52:18.547Z,59.93
2023-03-22T11:54:29.924Z,59.91
2023-03-22T11:56:33.419Z,60.16
2023-03-22T11:59:01.118Z,60.76
2023-03-22T12:01:05.948Z,60.38
2023-03-22T12:03:16.369Z,60.29
2023-03-22T12:05:23.582Z,59.97
2023-03-22T12:07:29.371Z,60.32
2023-03-22T12:09:40.907Z,60.17
2023-03-22T12:11:48.012Z,60.13
2023-03-22T12:13:58.590Z,60.12
2023-03-22T12:16:07.382Z,60.22
2023-03-22T12:18:17.141Z,60.49
2023-03-22T12:20:31.717Z,60.77
2023-03-22T12:22:40.311Z,60.70
2023-03-22T12:24:43.857Z,60.91
2023-03-22T12:26:47.739Z,60.48
2023-03-22T12:28:57.296Z,61.07
2023-03-22T12:31:07.794Z,61.28
2023-03-22T12:33:19.028Z,61.00
2023-03-22T12:35:26.366Z,60.97
2023-03-22T12:37:34.960Z,61.47
2023-03-22T12:39:41.987Z,61.58
2023-03-22T12:41:49.667Z,61.68
2023-03-22T12:43:56.246Z,61.60
2023-03-22T12:46:02.328Z,61.81
2023-03-22T12:48:16.008Z,61.30
2023-03-22T12:50:22.517Z,61.53
2023-03-22T12:52:44.682Z,61.67
2023-03-22T12:54:51.605Z,61.76
2023-03-22T12:56:56.114Z,62.15
2023-03-22T12:59:04.529Z,61.82
2023-03-22T13:01:20.401Z,62.55
2023-03-22T13:03:29.780Z,62.93
2023-03-22T13:05:35.339Z,62.89
2023-03-22T13:07:51.462Z,63.99
2023-03-22T13:09:54.979Z,64.90
2023-03-22T13:12:29.960Z,65.39
2023-03-22T13:14:57.740Z,64.83
2023-03-22T13:17:01.694Z,65.39
2023-03-22T13:19:26.676Z,65.72
2023-03-22T13:21:33.008Z,65.44
2023-03-22T13:23:36.950Z,65.25
2023-03-22T13:25:59.343Z,65.14
2023-03-22T13:28:05.155Z,65.21
2023-03-22T13:30:18.485Z,65.53
2023-03-22T13:32:30.622Z,65.57
2023-03-22T13:34:39.809Z,66.15
2023-03-22T13:36:52.141Z,65.92
2023-03-22T13:39:02.764Z,65.52
2023-03-22T13:41:09.008Z,65.58
2023-03-22T13:43:22.938Z,65.39
2023-03-22T13:45:32.355Z,65.20
2023-03-22T13:47:39.436Z,65.40
2023-03-22T13:49:55.017Z,65.33
2023-03-22T13:52:03.107Z,65.34
2023-03-22T13:54:11.462Z,65.90
2023-03-22T13:56:29.319Z,65.45
2023-03-22T13:58:38.415Z,65.64
2023-03-22T14:00:54.707Z,65.12
2023-03-22T14:03:02.414Z,65.45
2023-03-22T14:05:16.451Z,65.27
2023-03-22T14:07:25.243Z,65.69
2023-03-22T14:09:32.525Z,65.00
2023-03-22T14:11:45.063Z,65.03
2023-03-22T14:13:52.358Z,65.64
2023-03-22T14:16:00.107Z,65.82
2023-03-22T14:18:10.787Z,65.43
2023-03-22T14:20:19.615Z,65.63
